Time;durP1;ratioP1;P1;durP2;ratioP2;P2;SDS_P1;SDS_P2;PMS_P1;PMS_P2;Temp;Humidity;BMP_temperature;BMP_pressure;BME280_temperature;BME280_humidity;BME280_pressure;Samples;Min_cycle;Max_cycle;Signal;HPM_P1;HPM_P2
2023/10/17 00:02:13;;;;;;;8.25;4.50;;;;;;;;;;5067979;28;20116;-78
2023/10/17 00:04:41;;;;;;;7.35;4.50;;;;;;;;;;5069690;28;20039;-78
2023/10/17 00:07:08;;;;;;;6.85;4.03;;;;;;;;;;5066820;28;20032;-77
2023/10/17 00:09:37;;;;;;;8.40;4.40;;;;;;;;;;5066300;28;20035;-77
2023/10/17 00:12:14;;;;;;;7.18;4.20;;;;;;;;;;5070016;28;20427;-78
2023/10/17 00:17:33;;;;;;;7.78;4.35;;;;;;;;;;5030838;28;20101;-78
2023/10/17 00:19:58;;;;;;;5.63;4.00;;;;;;;;;;5066937;28;20036;-78
2023/10/17 00:22:23;;;;;;;9.52;4.72;;;;;;;;;;5067679;28;20079;-78
2023/10/17 00:24:57;;;;;;;7.55;4.18;;;;;;;;;;5068344;28;20091;-78
2023/10/17 00:27:22;;;;;;;8.10;4.10;;;;;;;;;;5070974;28;20098;-78
2023/10/17 00:29:48;;;;;;;7.40;4.20;;;;;;;;;;5067894;28;20672;-78
2023/10/17 00:32:14;;;;;;;7.65;4.00;;;;;;;;;;5051516;28;20028;-77
2023/10/17 00:34:40;;;;;;;7.28;4.28;;;;;;;;;;5053122;28;20032;-78
2023/10/17 00:37:14;;;;;;;7.88;4.15;;;;;;;;;;5076079;28;20046;-77
2023/10/17 00:39:39;;;;;;;7.85;3.78;;;;;;;;;;5067195;28;20028;-77
2023/10/17 00:44:32;;;;;;;7.47;4.00;;;;;;;;;;5073844;28;20492;-78
2023/10/17 00:47:01;;;;;;;7.78;4.13;;;;;;;;;;5056849;28;20025;-78
2023/10/17 00:49:29;;;;;;;8.35;3.88;;;;;;;;;;5043953;28;20460;-77
2023/10/17 00:51:59;;;;;;;6.25;3.60;;;;;;;;;;5061439;28;20020;-77
2023/10/17 00:54:29;;;;;;;6.57;3.97;;;;;;;;;;5069648;28;20024;-78
2023/10/17 00:56:55;;;;;;;6.22;3.47;;;;;;;;;;5066880;28;20074;-78
2023/10/17 00:59:25;;;;;;;5.63;3.20;;;;;;;;;;5062642;28;20388;-78
2023/10/17 01:01:51;;;;;;;6.78;3.83;;;;;;;;;;5070887;28;20055;-75
2023/10/17 01:04:22;;;;;;;5.00;3.25;;;;;;;;;;5066301;28;20056;-76
2023/10/17 01:06:54;;;;;;;8.13;3.65;;;;;;;;;;5047996;28;20026;-76
2023/10/17 01:09:19;;;;;;;5.47;3.17;;;;;;;;;;5067795;28;20020;-77
2023/10/17 01:11:45;;;;;;;5.55;3.03;;;;;;;;;;5065604;28;20559;-76
2023/10/17 01:14:18;;;;;;;4.97;3.38;;;;;;;;;;5065184;28;20025;-75
2023/10/17 01:16:45;;;;;;;7.20;3.58;;;;;;;;;;5066600;28;20021;-75
2023/10/17 01:19:11;;;;;;;8.07;3.50;;;;;;;;;;5068701;28;20538;-83
2023/10/17 01:21:37;;;;;;;5.32;3.00;;;;;;;;;;5070099;28;20024;-83
2023/10/17 01:24:03;;;;;;;6.40;2.88;;;;;;;;;;5047531;28;20080;-82
2023/10/17 01:26:28;;;;;;;5.57;2.80;;;;;;;;;;5047620;28;20029;-82
2023/10/17 01:28:54;;;;;;;5.72;3.00;;;;;;;;;;5065454;28;20017;-83
2023/10/17 01:31:23;;;;;;;5.30;2.90;;;;;;;;;;5065200;28;20137;-81
2023/10/17 01:34:02;;;;;;;6.03;3.08;;;;;;;;;;5070848;28;20111;-81
2023/10/17 01:36:27;;;;;;;6.53;2.97;;;;;;;;;;5064998;28;20396;-83
2023/10/17 01:38:54;;;;;;;6.10;2.70;;;;;;;;;;5066167;28;20033;-81
2023/10/17 01:41:20;;;;;;;6.40;3.20;;;;;;;;;;5066092;28;20071;-82
2023/10/17 01:43:46;;;;;;;6.20;3.00;;;;;;;;;;5066878;28;20443;-81
2023/10/17 01:46:15;;;;;;;5.15;2.97;;;;;;;;;;5066181;28;20020;-83
2023/10/17 01:48:47;;;;;;;5.60;2.90;;;;;;;;;;5048311;28;20039;-83
2023/10/17 01:51:13;;;;;;;5.63;3.20;;;;;;;;;;5066503;28;20048;-75
2023/10/17 01:53:39;;;;;;;6.38;2.80;;;;;;;;;;5068667;28;20074;-76
2023/10/17 01:56:18;;;;;;;5.57;3.28;;;;;;;;;;5070505;28;20079;-76
2023/10/17 01:58:50;;;;;;;5.93;3.08;;;;;;;;;;5064886;28;20099;-76
2023/10/17 02:01:25;;;;;;;5.50;2.80;;;;;;;;;;5067130;28;20028;-75
2023/10/17 02:04:03;;;;;;;5.78;2.92;;;;;;;;;;5048129;28;20025;-75
2023/10/17 02:06:33;;;;;;;6.25;3.22;;;;;;;;;;5064240;28;20439;-76
2023/10/17 02:08:59;;;;;;;6.32;3.00;;;;;;;;;;5063408;28;20025;-76
2023/10/17 02:11:29;;;;;;;5.90;3.10;;;;;;;;;;5062085;28;20108;-75
2023/10/17 02:13:56;;;;;;;6.80;3.03;;;;;;;;;;5045215;28;20508;-75
2023/10/17 02:16:29;;;;;;;6.22;3.15;;;;;;;;;;5066003;28;20024;-75
2023/10/17 02:18:55;;;;;;;5.67;3.10;;;;;;;;;;5046532;28;20473;-75
2023/10/17 02:21:21;;;;;;;6.18;2.97;;;;;;;;;;5066720;28;20265;-77
2023/10/17 02:23:50;;;;;;;6.82;3.42;;;;;;;;;;5065578;28;20078;-83
2023/10/17 02:26:23;;;;;;;5.28;3.08;;;;;;;;;;5062452;28;20492;-81
2023/10/17 02:28:59;;;;;;;5.35;3.15;;;;;;;;;;5067154;28;20034;-82
2023/10/17 02:31:28;;;;;;;6.07;3.00;;;;;;;;;;5047041;28;20049;-78
2023/10/17 02:33:54;;;;;;;6.22;2.92;;;;;;;;;;5063106;28;20388;-77
2023/10/17 02:36:19;;;;;;;5.82;3.20;;;;;;;;;;5050470;28;20535;-78
2023/10/17 02:38:45;;;;;;;6.53;3.22;;;;;;;;;;5066105;28;20115;-78
2023/10/17 02:41:28;;;;;;;6.22;3.20;;;;;;;;;;5064730;28;20067;-77
2023/10/17 02:43:54;;;;;;;5.75;3.25;;;;;;;;;;5064313;28;20032;-77
2023/10/17 02:46:21;;;;;;;5.53;3.10;;;;;;;;;;5064692;28;20384;-77
2023/10/17 02:48:47;;;;;;;5.15;3.30;;;;;;;;;;5067266;28;20020;-77
2023/10/17 02:53:56;;;;;;;5.10;3.15;;;;;;;;;;5059037;28;20086;-77
2023/10/17 02:56:23;;;;;;;6.20;3.30;;;;;;;;;;5063195;28;20391;-77
2023/10/17 02:58:51;;;;;;;6.50;3.45;;;;;;;;;;5062765;28;20049;-77
2023/10/17 03:01:19;;;;;;;6.88;3.20;;;;;;;;;;5065704;28;20113;-77
2023/10/17 03:03:50;;;;;;;6.22;3.50;;;;;;;;;;5066772;28;20032;-78
2023/10/17 03:06:16;;;;;;;5.80;3.33;;;;;;;;;;5067680;28;20044;-77
2023/10/17 03:08:49;;;;;;;6.80;3.42;;;;;;;;;;5063422;28;20412;-77
2023/10/17 03:11:16;;;;;;;;;;;;;;;;;;5062909;28;20023;-77
2023/10/17 03:13:43;;;;;;;7.03;3.67;;;;;;;;;;5063008;28;20368;-77
2023/10/17 03:16:27;;;;;;;5.72;3.20;;;;;;;;;;5045796;28;20487;-77
2023/10/17 03:18:58;;;;;;;8.35;3.33;;;;;;;;;;5064700;28;20466;-77
2023/10/17 03:21:33;;;;;;;6.03;3.75;;;;;;;;;;5046634;28;20024;-77
2023/10/17 03:24:00;;;;;;;6.85;3.67;;;;;;;;;;5048650;28;20024;-77
2023/10/17 03:26:26;;;;;;;6.35;3.65;;;;;;;;;;5068658;28;20108;-77
2023/10/17 03:28:54;;;;;;;7.18;3.88;;;;;;;;;;5063016;28;20017;-77
2023/10/17 03:31:26;;;;;;;6.47;3.80;;;;;;;;;;5062839;28;20550;-78
2023/10/17 03:33:52;;;;;;;6.85;3.90;;;;;;;;;;5063093;28;20051;-78
2023/10/17 03:39:28;;;;;;;6.63;4.38;;;;;;;;;;5066097;28;20032;-78
2023/10/17 03:41:56;;;;;;;7.15;4.00;;;;;;;;;;5065783;28;20039;-77
2023/10/17 03:44:31;;;;;;;7.90;4.28;;;;;;;;;;5049140;28;20499;-77
2023/10/17 03:47:04;;;;;;;7.72;4.30;;;;;;;;;;5068471;28;20024;-77
2023/10/17 03:49:36;;;;;;;7.97;4.63;;;;;;;;;;5044795;28;20538;-77
2023/10/17 03:52:04;;;;;;;7.10;4.63;;;;;;;;;;5066954;28;20032;-77
2023/10/17 03:54:29;;;;;;;8.30;4.72;;;;;;;;;;5066399;28;20025;-78
2023/10/17 03:57:02;;;;;;;8.38;4.70;;;;;;;;;;5070500;28;20082;-77
2023/10/17 03:59:51;;;;;;;;;;;;;;;;;;5067588;28;20052;-78
2023/10/17 04:02:20;;;;;;;7.15;4.57;;;;;;;;;;5062299;28;20287;-78
2023/10/17 04:04:53;;;;;;;7.57;5.00;;;;;;;;;;5066017;28;20096;-77
2023/10/17 04:07:21;;;;;;;;;;;;;;;;;;5075220;28;20077;-78
2023/10/17 04:10:19;;;;;;;6.78;4.53;;;;;;;;;;5065985;28;20003;-78
2023/10/17 04:15:31;;;;;;;7.45;4.90;;;;;;;;;;5066794;28;20072;-77
2023/10/17 04:17:58;;;;;;;9.32;5.38;;;;;;;;;;5065319;28;20446;-78
2023/10/17 04:20:25;;;;;;;8.70;5.10;;;;;;;;;;5065504;28;20070;-77
2023/10/17 04:22:51;;;;;;;9.38;4.97;;;;;;;;;;5068419;28;20533;-78
2023/10/17 04:25:20;;;;;;;8.63;5.38;;;;;;;;;;5050103;28;20495;-78
2023/10/17 04:27:54;;;;;;;7.88;5.80;;;;;;;;;;5067348;28;20031;-78
2023/10/17 04:30:29;;;;;;;9.32;5.13;;;;;;;;;;5047805;28;20079;-78
2023/10/17 04:33:05;;;;;;;10.13;5.88;;;;;;;;;;5062898;28;20032;-77
2023/10/17 04:35:32;;;;;;;8.13;5.45;;;;;;;;;;5047166;28;20028;-77
2023/10/17 04:38:16;;;;;;;10.02;6.07;;;;;;;;;;5047199;28;20400;-76
2023/10/17 04:40:50;;;;;;;8.48;5.35;;;;;;;;;;5064434;28;20024;-75
2023/10/17 04:43:44;;;;;;;8.20;5.43;;;;;;;;;;5052249;28;20025;-75
2023/10/17 04:46:09;;;;;;;8.13;5.45;;;;;;;;;;5046142;28;20484;-75
2023/10/17 04:48:46;;;;;;;8.13;5.10;;;;;;;;;;5066111;28;20027;-75
2023/10/17 04:53:49;;;;;;;8.57;5.35;;;;;;;;;;5066716;28;20043;-74
2023/10/17 04:56:22;;;;;;;8.40;5.25;;;;;;;;;;5063793;28;20460;-75
2023/10/17 04:58:53;;;;;;;8.68;4.93;;;;;;;;;;5066560;28;20590;-74
2023/10/17 05:01:36;;;;;;;6.75;4.88;;;;;;;;;;5044046;28;20426;-75
2023/10/17 05:04:13;;;;;;;;;;;;;;;;;;5064683;28;20025;-75
2023/10/17 06:17:47;;;;;;;8.40;5.05;;;;;;;;;;5064732;28;20043;-78
2023/10/17 06:20:14;;;;;;;7.07;4.50;;;;;;;;;;5065881;28;20029;-78
2023/10/17 06:28:27;;;;;;;9.18;5.10;;;;;;;;;;5059583;28;20395;-77
2023/10/17 06:33:37;;;;;;;9.43;5.30;;;;;;;;;;5063131;28;20032;-78
2023/10/17 06:36:24;;;;;;;10.05;5.85;;;;;;;;;;5065651;28;20032;-78
2023/10/17 06:38:50;;;;;;;8.30;5.88;;;;;;;;;;5066173;28;20063;-78
2023/10/17 06:41:27;;;;;;;9.13;5.72;;;;;;;;;;5070761;28;20067;-77
2023/10/17 06:43:55;;;;;;;9.98;5.50;;;;;;;;;;5061071;28;20085;-78
2023/10/17 06:46:28;;;;;;;10.10;5.40;;;;;;;;;;5042144;28;20085;-78
2023/10/17 06:48:57;;;;;;;10.80;6.30;;;;;;;;;;5039317;28;20112;-78
2023/10/17 06:51:29;;;;;;;10.85;6.03;;;;;;;;;;5065931;28;20032;-78
2023/10/17 06:53:57;;;;;;;9.65;5.50;;;;;;;;;;5064583;28;20024;-77
2023/10/17 06:56:25;;;;;;;9.23;5.80;;;;;;;;;;5065200;28;20032;-77
2023/10/17 06:59:03;;;;;;;9.98;6.22;;;;;;;;;;5068724;28;20119;-78
2023/10/17 07:01:32;;;;;;;8.57;5.32;;;;;;;;;;5067923;28;20052;-78
2023/10/17 07:03:59;;;;;;;8.52;5.40;;;;;;;;;;5063888;28;20071;-77
2023/10/17 07:06:24;;;;;;;7.57;5.45;;;;;;;;;;5046283;28;20451;-77
2023/10/17 07:08:51;;;;;;;11.27;6.47;;;;;;;;;;5064708;28;20025;-77
2023/10/17 07:13:55;;;;;;;10.52;6.68;;;;;;;;;;5066049;28;20639;-75
2023/10/17 07:16:33;;;;;;;8.57;5.50;;;;;;;;;;5063266;28;20108;-75
2023/10/17 07:24:33;;;;;;;10.60;6.00;;;;;;;;;;5062942;28;20400;-76
2023/10/17 07:26:58;;;;;;;9.00;6.30;;;;;;;;;;5061153;28;20083;-76
2023/10/17 07:29:24;;;;;;;10.05;6.18;;;;;;;;;;5065298;28;20033;-76
2023/10/17 07:31:52;;;;;;;10.40;6.15;;;;;;;;;;5061686;28;20028;-77
2023/10/17 07:34:21;;;;;;;10.77;5.90;;;;;;;;;;5064908;28;20024;-77
2023/10/17 07:36:50;;;;;;;9.55;6.03;;;;;;;;;;5051712;28;20094;-78
2023/10/17 07:39:22;;;;;;;11.63;7.35;;;;;;;;;;5038641;28;20040;-78
2023/10/17 07:41:55;;;;;;;11.43;7.40;;;;;;;;;;5065713;28;20020;-77
2023/10/17 07:44:27;;;;;;;11.48;7.15;;;;;;;;;;5052382;28;20032;-77
2023/10/17 07:47:09;;;;;;;11.00;7.68;;;;;;;;;;5050356;28;20032;-77
2023/10/17 07:49:35;;;;;;;11.65;7.88;;;;;;;;;;5048897;28;20786;-78
2023/10/17 07:52:12;;;;;;;13.90;8.65;;;;;;;;;;5039105;28;20404;-77
2023/10/17 07:54:58;;;;;;;13.57;8.77;;;;;;;;;;5054673;28;20495;-77
2023/10/17 07:57:36;;;;;;;13.95;8.90;;;;;;;;;;5056456;28;20452;-77
2023/10/17 08:02:48;;;;;;;16.48;8.98;;;;;;;;;;5057842;28;20086;-77
2023/10/17 08:05:17;;;;;;;14.80;8.65;;;;;;;;;;5042196;28;20032;-77
2023/10/17 08:07:43;;;;;;;13.85;9.05;;;;;;;;;;5057271;28;20539;-77
2023/10/17 08:10:11;;;;;;;15.93;9.40;;;;;;;;;;5060037;28;20051;-77
2023/10/17 08:12:38;;;;;;;12.52;8.57;;;;;;;;;;5060113;28;20585;-78
2023/10/17 08:15:19;;;;;;;15.25;9.65;;;;;;;;;;5057246;28;20113;-77
2023/10/17 08:17:44;;;;;;;12.82;9.02;;;;;;;;;;5058181;28;21081;-78
2023/10/17 08:23:06;;;;;;;14.32;8.88;;;;;;;;;;5053793;28;21012;-77
2023/10/17 08:25:32;;;;;;;;;;;;;;;;;;5059463;28;20033;-78
2023/10/17 08:27:58;;;;;;;13.70;9.10;;;;;;;;;;5057383;28;20620;-78
2023/10/17 08:30:24;;;;;;;13.80;8.55;;;;;;;;;;5061625;28;20105;-77
2023/10/17 08:33:09;;;;;;;14.20;8.80;;;;;;;;;;5066315;28;20528;-78
2023/10/17 08:35:38;;;;;;;12.20;8.23;;;;;;;;;;5059733;28;20060;-77
2023/10/17 08:38:10;;;;;;;13.35;8.25;;;;;;;;;;5037274;28;20016;-77
2023/10/17 08:43:11;;;;;;;13.57;8.20;;;;;;;;;;5060080;28;20040;-77
2023/10/17 08:45:39;;;;;;;13.88;8.77;;;;;;;;;;5033172;28;20033;-77
2023/10/17 08:48:11;;;;;;;11.43;8.15;;;;;;;;;;5058363;28;20024;-78
2023/10/17 08:50:38;;;;;;;14.60;8.65;;;;;;;;;;5049879;28;20488;-78
2023/10/17 08:53:07;;;;;;;12.75;8.35;;;;;;;;;;5054092;28;20094;-77
2023/10/17 08:55:33;;;;;;;10.65;7.75;;;;;;;;;;5061459;28;20056;-78
2023/10/17 08:57:59;;;;;;;11.75;7.82;;;;;;;;;;5042503;28;20512;-77
2023/10/17 09:00:49;;;;;;;12.02;7.97;;;;;;;;;;5054945;28;20055;-77
2023/10/17 09:03:31;;;;;;;12.00;7.78;;;;;;;;;;5056811;28;20028;-78
2023/10/17 09:05:58;;;;;;;12.07;7.07;;;;;;;;;;5070299;28;20775;-77
2023/10/17 09:11:29;;;;;;;11.95;6.85;;;;;;;;;;5061170;28;20067;-77
2023/10/17 09:14:17;;;;;;;10.73;6.82;;;;;;;;;;5065479;28;20043;-77
2023/10/17 09:16:50;;;;;;;12.50;7.20;;;;;;;;;;5063344;28;20036;-77
2023/10/17 09:19:16;;;;;;;;;;;;;;;;;;5060821;28;20013;-77
2023/10/17 09:21:46;;;;;;;11.88;6.13;;;;;;;;;;5055340;28;20010;-77
2023/10/17 09:24:35;;;;;;;9.70;6.53;;;;;;;;;;5042541;28;20029;-77
2023/10/17 09:27:12;;;;;;;9.07;6.55;;;;;;;;;;5045575;28;20029;-78
2023/10/17 09:29:49;;;;;;;11.63;6.68;;;;;;;;;;5060652;28;20013;-78
2023/10/17 09:32:37;;;;;;;11.60;6.55;;;;;;;;;;5062978;28;20040;-78
2023/10/17 09:35:11;;;;;;;10.20;6.70;;;;;;;;;;5048780;28;20025;-77
2023/10/17 09:37:41;;;;;;;8.73;6.07;;;;;;;;;;5062773;28;20028;-77
2023/10/17 09:40:14;;;;;;;9.00;6.30;;;;;;;;;;5058622;28;20463;-78
2023/10/17 09:42:40;;;;;;;10.80;6.32;;;;;;;;;;5068251;28;20068;-78
2023/10/17 09:45:09;;;;;;;9.60;5.85;;;;;;;;;;5044230;28;20496;-78
2023/10/17 09:47:39;;;;;;;11.75;6.30;;;;;;;;;;5053331;28;20115;-78
2023/10/17 09:50:08;;;;;;;8.68;6.25;;;;;;;;;;5053265;28;20033;-78
2023/10/17 09:52:34;;;;;;;10.68;6.38;;;;;;;;;;5061513;28;20381;-78
2023/10/17 09:55:05;;;;;;;8.93;6.18;;;;;;;;;;5042480;28;20369;-78
2023/10/17 09:57:33;;;;;;;10.07;6.53;;;;;;;;;;5030687;28;20043;-78
2023/10/17 10:00:14;;;;;;;13.38;6.60;;;;;;;;;;5054776;28;20536;-77
2023/10/17 10:02:41;;;;;;;9.45;6.07;;;;;;;;;;5056270;28;20025;-78
2023/10/17 10:05:20;;;;;;;9.73;5.70;;;;;;;;;;5064858;28;20036;-78
2023/10/17 10:07:45;;;;;;;9.65;6.03;;;;;;;;;;5066356;28;20417;-78
2023/10/17 10:10:48;;;;;;;9.88;5.82;;;;;;;;;;5061702;28;20119;-78
2023/10/17 10:13:14;;;;;;;10.50;6.20;;;;;;;;;;5045337;28;20054;-77
2023/10/17 10:15:53;;;;;;;9.88;6.18;;;;;;;;;;5062257;28;20488;-78
2023/10/17 10:18:34;;;;;;;11.55;5.85;;;;;;;;;;5065870;28;20245;-78
2023/10/17 10:21:01;;;;;;;8.85;6.10;;;;;;;;;;5036405;28;20503;-78
2023/10/17 10:23:37;;;;;;;11.02;6.45;;;;;;;;;;5067678;28;20159;-78
2023/10/17 10:26:11;;;;;;;9.77;6.20;;;;;;;;;;5043570;28;20036;-78
2023/10/17 10:28:41;;;;;;;8.98;5.85;;;;;;;;;;5059638;28;20033;-78
2023/10/17 10:31:29;;;;;;;8.77;5.75;;;;;;;;;;5051723;28;20029;-78
2023/10/17 10:33:55;;;;;;;7.82;5.25;;;;;;;;;;5051069;28;20159;-78
2023/10/17 10:36:23;;;;;;;10.27;5.50;;;;;;;;;;5040700;28;20384;-78
2023/10/17 10:38:49;;;;;;;8.05;5.18;;;;;;;;;;5028931;28;20048;-78
2023/10/17 10:41:15;;;;;;;9.80;5.88;;;;;;;;;;5050948;28;20109;-78
2023/10/17 10:43:44;;;;;;;11.20;5.88;;;;;;;;;;5052828;28;20796;-78
2023/10/17 10:46:11;;;;;;;10.48;5.63;;;;;;;;;;5051689;28;20471;-78
2023/10/17 10:48:38;;;;;;;7.88;5.28;;;;;;;;;;5047978;28;20029;-78
2023/10/17 10:51:04;;;;;;;9.88;5.28;;;;;;;;;;5051323;28;20401;-78
2023/10/17 10:53:32;;;;;;;8.05;5.50;;;;;;;;;;5037458;28;20024;-78
2023/10/17 10:56:06;;;;;;;7.78;5.47;;;;;;;;;;5053869;28;20037;-77
2023/10/17 10:58:51;;;;;;;8.80;4.90;;;;;;;;;;5034389;28;20028;-78
2023/10/17 11:01:18;;;;;;;7.28;4.90;;;;;;;;;;5056927;28;20031;-75
2023/10/17 11:03:46;;;;;;;7.95;4.80;;;;;;;;;;5058589;28;20016;-76
2023/10/17 11:06:13;;;;;;;8.98;5.18;;;;;;;;;;5044002;28;20441;-77
2023/10/17 11:08:45;;;;;;;7.80;4.65;;;;;;;;;;5037846;28;20131;-76
2023/10/17 11:11:11;;;;;;;7.13;4.03;;;;;;;;;;5061973;28;20085;-77
2023/10/17 11:13:45;;;;;;;6.40;4.00;;;;;;;;;;5046918;28;20021;-76
2023/10/17 11:16:10;;;;;;;7.28;4.07;;;;;;;;;;5056881;28;20385;-75
2023/10/17 11:18:43;;;;;;;5.85;4.07;;;;;;;;;;5042943;28;20029;-77
2023/10/17 11:21:08;;;;;;;6.97;4.20;;;;;;;;;;5041087;28;20024;-75
2023/10/17 11:23:37;;;;;;;6.90;4.55;;;;;;;;;;5038065;28;20032;-75
2023/10/17 11:26:12;;;;;;;7.78;4.00;;;;;;;;;;5054675;28;20568;-75
2023/10/17 11:28:42;;;;;;;7.95;4.00;;;;;;;;;;5057367;28;20029;-76
2023/10/17 11:31:24;;;;;;;7.53;3.67;;;;;;;;;;5057726;28;20495;-77
2023/10/17 11:34:22;;;;;;;6.88;3.70;;;;;;;;;;5044762;28;20111;-77
2023/10/17 11:36:47;;;;;;;7.35;3.95;;;;;;;;;;5055735;28;20127;-75
2023/10/17 11:39:16;;;;;;;5.20;3.13;;;;;;;;;;5057735;28;20024;-75
2023/10/17 11:42:00;;;;;;;6.82;3.40;;;;;;;;;;5038809;28;20120;-75
2023/10/17 11:44:27;;;;;;;4.82;3.03;;;;;;;;;;5053937;28;20051;-76
2023/10/17 11:47:03;;;;;;;9.07;3.72;;;;;;;;;;5059208;28;20028;-75
2023/10/17 11:49:35;;;;;;;5.15;3.15;;;;;;;;;;5063481;28;20132;-76
2023/10/17 11:52:09;;;;;;;7.50;3.50;;;;;;;;;;5056724;28;20030;-75
2023/10/17 11:55:03;;;;;;;7.00;3.50;;;;;;;;;;5043791;28;20523;-77
2023/10/17 11:57:29;;;;;;;5.47;3.28;;;;;;;;;;5063040;28;20476;-76
2023/10/17 12:00:19;;;;;;;5.30;3.35;;;;;;;;;;5060021;28;20414;-76
2023/10/17 12:02:48;;;;;;;7.65;3.40;;;;;;;;;;5058207;28;20082;-77
2023/10/17 12:05:18;;;;;;;5.78;3.75;;;;;;;;;;5057239;28;20229;-75
2023/10/17 12:07:53;;;;;;;5.60;3.35;;;;;;;;;;5039031;28;20043;-76
2023/10/17 12:10:19;;;;;;;5.68;3.45;;;;;;;;;;5045397;28;20107;-79
2023/10/17 12:12:45;;;;;;;7.70;3.67;;;;;;;;;;5055644;28;20330;-75
2023/10/17 12:15:13;;;;;;;7.00;3.72;;;;;;;;;;5041942;28;20032;-77
2023/10/17 12:17:42;;;;;;;5.43;3.55;;;;;;;;;;5058102;28;20028;-76
2023/10/17 12:20:13;;;;;;;7.38;3.60;;;;;;;;;;5032742;28;20123;-80
2023/10/17 12:22:39;;;;;;;8.20;3.78;;;;;;;;;;5048783;28;20068;-76
2023/10/17 12:25:06;;;;;;;6.03;3.40;;;;;;;;;;5029994;28;20035;-78
2023/10/17 12:27:31;;;;;;;5.50;3.55;;;;;;;;;;5051656;28;20757;-78
2023/10/17 12:29:57;;;;;;;8.07;3.40;;;;;;;;;;5038810;28;20036;-76
2023/10/17 12:32:22;;;;;;;5.40;3.45;;;;;;;;;;5040721;28;20036;-77
2023/10/17 12:34:49;;;;;;;7.38;3.50;;;;;;;;;;5025114;28;20029;-79
2023/10/17 12:37:17;;;;;;;5.38;3.15;;;;;;;;;;5032550;28;20051;-79
2023/10/17 12:39:43;;;;;;;6.70;3.40;;;;;;;;;;5051519;28;21923;-76
2023/10/17 12:42:08;;;;;;;6.68;3.70;;;;;;;;;;5038526;28;20040;-76
2023/10/17 12:44:34;;;;;;;6.53;3.78;;;;;;;;;;5052988;28;20492;-78
2023/10/17 12:47:00;;;;;;;8.43;3.63;;;;;;;;;;5030856;28;20388;-77
2023/10/17 12:49:26;;;;;;;6.05;3.50;;;;;;;;;;5039442;28;20645;-76
2023/10/17 12:51:52;;;;;;;6.53;3.42;;;;;;;;;;5058906;28;20032;-76
2023/10/17 12:54:18;;;;;;;6.70;3.53;;;;;;;;;;5037239;28;20056;-79
2023/10/17 12:56:43;;;;;;;6.03;3.38;;;;;;;;;;5031057;28;20541;-76
2023/10/17 12:59:12;;;;;;;4.55;2.83;;;;;;;;;;5037933;28;20512;-76
2023/10/17 13:01:38;;;;;;;4.75;2.83;;;;;;;;;;5052407;28;20480;-79
2023/10/17 13:04:03;;;;;;;4.75;2.95;;;;;;;;;;5032806;28;20036;-77
2023/10/17 13:06:28;;;;;;;5.70;3.15;;;;;;;;;;5035371;28;20695;-76
2023/10/17 13:08:57;;;;;;;5.30;3.10;;;;;;;;;;5056632;28;20032;-76
2023/10/17 13:11:26;;;;;;;7.50;3.22;;;;;;;;;;5055853;28;20727;-77
2023/10/17 13:13:52;;;;;;;6.47;3.50;;;;;;;;;;5026260;28;20798;-76
2023/10/17 13:16:18;;;;;;;6.72;3.33;;;;;;;;;;5053921;28;20032;-78
2023/10/17 13:18:47;;;;;;;5.28;3.33;;;;;;;;;;5056834;28;20111;-76
2023/10/17 13:21:13;;;;;;;6.90;3.42;;;;;;;;;;5050861;28;21693;-76
2023/10/17 13:23:44;;;;;;;5.80;3.42;;;;;;;;;;5051951;28;20054;-79
2023/10/17 13:26:13;;;;;;;6.43;3.72;;;;;;;;;;5054227;28;20025;-77
2023/10/17 13:28:39;;;;;;;6.60;3.30;;;;;;;;;;5060116;28;20024;-78
2023/10/17 13:31:11;;;;;;;4.82;2.90;;;;;;;;;;5038427;28;20036;-79
2023/10/17 13:33:38;;;;;;;6.13;3.05;;;;;;;;;;5033252;28;20037;-78
2023/10/17 13:36:06;;;;;;;6.15;3.40;;;;;;;;;;5053873;28;20028;-78
2023/10/17 13:38:32;;;;;;;5.45;3.03;;;;;;;;;;5031579;28;20488;-76
2023/10/17 13:41:11;;;;;;;6.45;3.20;;;;;;;;;;5055777;28;20074;-78
2023/10/17 13:43:38;;;;;;;5.60;3.03;;;;;;;;;;5044407;28;20547;-78
2023/10/17 13:46:13;;;;;;;7.15;3.58;;;;;;;;;;5046906;28;20042;-78
2023/10/17 13:48:48;;;;;;;4.97;3.22;;;;;;;;;;5051519;28;20016;-79
2023/10/17 13:51:15;;;;;;;5.57;3.10;;;;;;;;;;5038219;28;20029;-76
2023/10/17 13:53:43;;;;;;;4.88;2.95;;;;;;;;;;5047268;28;20456;-77
2023/10/17 13:56:16;;;;;;;5.28;3.15;;;;;;;;;;5050141;28;20097;-78
2023/10/17 13:58:41;;;;;;;5.65;3.17;;;;;;;;;;5056366;28;20099;-77
2023/10/17 14:04:01;;;;;;;7.05;3.42;;;;;;;;;;5044768;28;20079;-84
2023/10/17 14:09:23;;;;;;;6.90;3.30;;;;;;;;;;5026355;28;20146;-81
2023/10/17 14:11:50;;;;;;;5.85;3.30;;;;;;;;;;5048818;28;20414;-84
2023/10/17 14:14:16;;;;;;;6.72;3.80;;;;;;;;;;5052772;28;20028;-82
2023/10/17 14:16:42;;;;;;;5.45;3.30;;;;;;;;;;5034507;28;20129;-84
2023/10/17 14:27:20;;;;;;;6.70;3.00;;;;;;;;;;5049732;28;20039;-81
2023/10/17 14:29:47;;;;;;;5.05;3.22;;;;;;;;;;5052090;28;20016;-79
2023/10/17 14:32:15;;;;;;;4.90;2.92;;;;;;;;;;5036811;28;20024;-81
2023/10/17 14:34:41;;;;;;;6.38;3.35;;;;;;;;;;5031035;28;20059;-83
2023/10/17 14:37:07;;;;;;;5.60;3.70;;;;;;;;;;5053960;28;20063;-83
2023/10/17 14:39:33;;;;;;;9.00;3.63;;;;;;;;;;5033895;28;20032;-84
2023/10/17 14:41:58;;;;;;;8.82;3.58;;;;;;;;;;5026161;28;20085;-83
2023/10/17 14:44:24;;;;;;;4.85;3.25;;;;;;;;;;5048559;28;20408;-84
2023/10/17 14:46:52;;;;;;;5.63;3.30;;;;;;;;;;5037308;28;20150;-82
2023/10/17 14:49:18;;;;;;;5.63;3.05;;;;;;;;;;5035035;28;20018;-84
2023/10/17 14:51:44;;;;;;;4.47;3.00;;;;;;;;;;5041005;28;20365;-84
2023/10/17 14:54:09;;;;;;;6.72;3.20;;;;;;;;;;5034293;28;20076;-84
2023/10/17 14:56:36;;;;;;;5.05;2.90;;;;;;;;;;5038075;28;20020;-82
2023/10/17 14:59:01;;;;;;;5.03;2.90;;;;;;;;;;5030609;28;20032;-78
2023/10/17 15:01:26;;;;;;;4.38;2.78;;;;;;;;;;5048811;28;20106;-82
2023/10/17 15:03:52;;;;;;;4.68;2.90;;;;;;;;;;5057194;28;20036;-82
2023/10/17 15:06:18;;;;;;;3.30;2.47;;;;;;;;;;5046185;28;20722;-82
2023/10/17 15:08:44;;;;;;;4.57;2.63;;;;;;;;;;5049386;28;20025;-82
2023/10/17 15:11:12;;;;;;;6.82;2.80;;;;;;;;;;5029141;28;20503;-80
2023/10/17 15:13:39;;;;;;;3.97;2.42;;;;;;;;;;5030734;28;20437;-82
2023/10/17 15:16:20;;;;;;;4.53;2.67;;;;;;;;;;5042037;28;20385;-83
2023/10/17 15:18:47;;;;;;;5.00;2.80;;;;;;;;;;5050358;28;20127;-83
2023/10/17 15:21:13;;;;;;;6.05;2.63;;;;;;;;;;5058323;28;20032;-82
2023/10/17 15:23:42;;;;;;;5.95;2.90;;;;;;;;;;5044204;28;20032;-81
2023/10/17 15:26:10;;;;;;;5.22;2.90;;;;;;;;;;5039656;28;20937;-81
2023/10/17 15:28:36;;;;;;;5.75;2.90;;;;;;;;;;5054074;28;20063;-83
2023/10/17 15:31:09;;;;;;;5.53;2.67;;;;;;;;;;5056921;28;20036;-85
2023/10/17 15:33:35;;;;;;;;;;;;;;;;;;5045879;28;20040;-81
2023/10/17 15:36:05;;;;;;;5.50;2.42;;;;;;;;;;5038534;28;19917;-82
2023/10/17 15:38:32;;;;;;;6.18;2.28;;;;;;;;;;5031760;28;20559;-82
2023/10/17 15:40:59;;;;;;;5.35;2.70;;;;;;;;;;5052727;28;20033;-79
2023/10/17 15:43:24;;;;;;;4.13;2.22;;;;;;;;;;5043609;28;20037;-80
2023/10/17 15:45:51;;;;;;;4.90;2.33;;;;;;;;;;5043684;28;20087;-84
2023/10/17 15:48:17;;;;;;;4.15;2.50;;;;;;;;;;5050069;28;20129;-82
2023/10/17 15:50:44;;;;;;;8.05;2.60;;;;;;;;;;5048581;28;20048;-79
2023/10/17 15:53:10;;;;;;;5.53;3.17;;;;;;;;;;5043157;28;20117;-79
2023/10/17 15:55:36;;;;;;;5.20;2.67;;;;;;;;;;5025981;28;20037;-83
2023/10/17 15:58:02;;;;;;;5.10;2.58;;;;;;;;;;5035944;28;20033;-83
2023/10/17 16:00:28;;;;;;;4.90;2.45;;;;;;;;;;5041971;28;20029;-80
2023/10/17 16:02:54;;;;;;;5.18;2.58;;;;;;;;;;5044670;28;20542;-81
2023/10/17 16:05:19;;;;;;;5.53;2.60;;;;;;;;;;5058831;28;20032;-83
2023/10/17 16:07:44;;;;;;;4.38;2.45;;;;;;;;;;5053723;28;20024;-84
2023/10/17 16:10:14;;;;;;;4.93;2.47;;;;;;;;;;5050453;28;20472;-84
2023/10/17 16:12:41;;;;;;;3.90;2.25;;;;;;;;;;5052722;28;20658;-83
2023/10/17 16:15:08;;;;;;;5.18;2.42;;;;;;;;;;5054157;28;20028;-78
2023/10/17 16:17:34;;;;;;;3.63;2.38;;;;;;;;;;5060509;28;20068;-81
2023/10/17 16:20:01;;;;;;;4.65;2.60;;;;;;;;;;5031884;28;20110;-79
2023/10/17 16:22:26;;;;;;;4.47;2.58;;;;;;;;;;5051362;28;20482;-84
2023/10/17 16:24:52;;;;;;;4.30;2.45;;;;;;;;;;5032470;28;20040;-85
2023/10/17 16:27:17;;;;;;;4.82;2.28;;;;;;;;;;5037879;28;20062;-81
2023/10/17 16:29:43;;;;;;;4.40;2.60;;;;;;;;;;5044459;28;20360;-84
2023/10/17 16:32:08;;;;;;;4.60;2.92;;;;;;;;;;5047521;28;20083;-78
2023/10/17 16:34:33;;;;;;;6.05;2.53;;;;;;;;;;5056047;28;20048;-78
2023/10/17 16:36:59;;;;;;;4.38;2.47;;;;;;;;;;5068403;28;20032;-79
2023/10/17 16:39:24;;;;;;;5.78;2.70;;;;;;;;;;5025244;28;22162;-78
2023/10/17 16:41:50;;;;;;;6.60;3.08;;;;;;;;;;5064043;28;20052;-78
2023/10/17 16:44:16;;;;;;;4.78;2.53;;;;;;;;;;5068202;28;20028;-78
2023/10/17 16:46:42;;;;;;;4.50;2.72;;;;;;;;;;5052913;28;20121;-78
2023/10/17 16:49:08;;;;;;;8.13;3.22;;;;;;;;;;5059700;28;20112;-78
2023/10/17 16:51:34;;;;;;;7.40;3.20;;;;;;;;;;5044912;28;21099;-78
2023/10/17 16:53:59;;;;;;;6.68;3.17;;;;;;;;;;5059464;28;20497;-79
2023/10/17 16:56:25;;;;;;;6.85;3.28;;;;;;;;;;5057167;28;20071;-78
2023/10/17 16:58:52;;;;;;;5.20;3.10;;;;;;;;;;5057845;28;20105;-78
2023/10/17 17:01:17;;;;;;;4.75;2.97;;;;;;;;;;5061309;28;20024;-78
2023/10/17 17:03:44;;;;;;;6.82;3.38;;;;;;;;;;5062232;28;20051;-78
2023/10/17 17:06:10;;;;;;;7.85;3.70;;;;;;;;;;5059284;28;20743;-78
2023/10/17 17:08:37;;;;;;;6.22;3.92;;;;;;;;;;5040480;28;20039;-78